sensor_id;sensor_type;location;lat;lon;timestamp;P1;durP1;ratioP1;P2;durP2;ratioP2
14613;SDS011;7393;51.446;6.800;2023-05-10T00:00:52;11.73;;;10.47;;
14613;SDS011;7393;51.446;6.800;2023-05-10T00:03:19;10.50;;;9.40;;
14613;SDS011;7393;51.446;6.800;2023-05-10T00:05:45;11.87;;;10.30;;
14613;SDS011;7393;51.446;6.800;2023-05-10T00:08:12;12.00;;;10.60;;
14613;SDS011;7393;51.446;6.800;2023-05-10T00:10:40;11.77;;;10.57;;
14613;SDS011;7393;51.446;6.800;2023-05-10T00:13:07;12.03;;;10.50;;
14613;SDS011;7393;51.446;6.800;2023-05-10T00:15:34;11.50;;;9.53;;
14613;SDS011;7393;51.446;6.800;2023-05-10T00:18:01;10.63;;;9.53;;
14613;SDS011;7393;51.446;6.800;2023-05-10T00:20:27;9.40;;;8.50;;
14613;SDS011;7393;51.446;6.800;2023-05-10T00:22:54;9.70;;;7.53;;
14613;SDS011;7393;51.446;6.800;2023-05-10T00:25:21;9.20;;;8.03;;
14613;SDS011;7393;51.446;6.800;2023-05-10T00:27:49;8.13;;;6.50;;
14613;SDS011;7393;51.446;6.800;2023-05-10T00:30:16;9.17;;;7.40;;
14613;SDS011;7393;51.446;6.800;2023-05-10T00:32:43;8.33;;;6.73;;
14613;SDS011;7393;51.446;6.800;2023-05-10T00:35:10;8.80;;;6.53;;
14613;SDS011;7393;51.446;6.800;2023-05-10T00:37:37;7.90;;;6.50;;
14613;SDS011;7393;51.446;6.800;2023-05-10T00:40:04;8.87;;;7.27;;
14613;SDS011;7393;51.446;6.800;2023-05-10T00:42:32;9.43;;;8.13;;
14613;SDS011;7393;51.446;6.800;2023-05-10T00:45:00;10.37;;;8.97;;
14613;SDS011;7393;51.446;6.800;2023-05-10T00:47:27;10.87;;;8.77;;
14613;SDS011;7393;51.446;6.800;2023-05-10T00:49:54;11.83;;;9.97;;
14613;SDS011;7393;51.446;6.800;2023-05-10T00:52:21;11.97;;;9.70;;
14613;SDS011;7393;51.446;6.800;2023-05-10T00:54:49;13.10;;;9.70;;
14613;SDS011;7393;51.446;6.800;2023-05-10T00:57:17;11.53;;;9.77;;
14613;SDS011;7393;51.446;6.800;2023-05-10T00:59:44;10.87;;;9.37;;
14613;SDS011;7393;51.446;6.800;2023-05-10T01:02:12;11.57;;;9.93;;
14613;SDS011;7393;51.446;6.800;2023-05-10T01:04:39;12.80;;;10.00;;
14613;SDS011;7393;51.446;6.800;2023-05-10T01:07:06;13.40;;;10.47;;
14613;SDS011;7393;51.446;6.800;2023-05-10T01:09:33;11.30;;;10.10;;
14613;SDS011;7393;51.446;6.800;2023-05-10T01:12:00;12.20;;;9.57;;
14613;SDS011;7393;51.446;6.800;2023-05-10T01:14:28;11.13;;;9.90;;
14613;SDS011;7393;51.446;6.800;2023-05-10T01:16:56;11.73;;;9.53;;
14613;SDS011;7393;51.446;6.800;2023-05-10T01:19:25;12.43;;;10.10;;
14613;SDS011;7393;51.446;6.800;2023-05-10T01:21:56;12.20;;;10.20;;
14613;SDS011;7393;51.446;6.800;2023-05-10T01:24:34;11.73;;;10.13;;
14613;SDS011;7393;51.446;6.800;2023-05-10T01:27:35;13.33;;;9.83;;
14613;SDS011;7393;51.446;6.800;2023-05-10T01:30:53;11.17;;;9.30;;
14613;SDS011;7393;51.446;6.800;2023-05-10T01:33:46;11.70;;;9.03;;
14613;SDS011;7393;51.446;6.800;2023-05-10T01:36:19;11.87;;;9.97;;
14613;SDS011;7393;51.446;6.800;2023-05-10T01:38:51;10.67;;;9.47;;
14613;SDS011;7393;51.446;6.800;2023-05-10T01:41:24;12.60;;;9.73;;
14613;SDS011;7393;51.446;6.800;2023-05-10T01:44:01;12.47;;;9.53;;
14613;SDS011;7393;51.446;6.800;2023-05-10T01:46:32;13.30;;;9.40;;
14613;SDS011;7393;51.446;6.800;2023-05-10T01:49:03;14.73;;;9.50;;
14613;SDS011;7393;51.446;6.800;2023-05-10T01:51:36;11.70;;;9.10;;
14613;SDS011;7393;51.446;6.800;2023-05-10T01:54:05;11.30;;;8.97;;
14613;SDS011;7393;51.446;6.800;2023-05-10T01:56:35;9.50;;;8.03;;
14613;SDS011;7393;51.446;6.800;2023-05-10T01:59:05;10.57;;;8.63;;
14613;SDS011;7393;51.446;6.800;2023-05-10T02:01:35;12.23;;;8.57;;
14613;SDS011;7393;51.446;6.800;2023-05-10T02:04:04;15.13;;;9.63;;
14613;SDS011;7393;51.446;6.800;2023-05-10T02:06:33;11.13;;;9.53;;
14613;SDS011;7393;51.446;6.800;2023-05-10T02:09:01;12.17;;;9.00;;
14613;SDS011;7393;51.446;6.800;2023-05-10T02:11:29;12.73;;;9.37;;
14613;SDS011;7393;51.446;6.800;2023-05-10T02:13:57;13.97;;;9.47;;
14613;SDS011;7393;51.446;6.800;2023-05-10T02:16:24;9.70;;;8.63;;
14613;SDS011;7393;51.446;6.800;2023-05-10T02:18:55;10.67;;;9.07;;
14613;SDS011;7393;51.446;6.800;2023-05-10T02:21:25;10.67;;;9.37;;
14613;SDS011;7393;51.446;6.800;2023-05-10T02:23:53;11.53;;;9.87;;
14613;SDS011;7393;51.446;6.800;2023-05-10T02:26:21;10.10;;;9.00;;
14613;SDS011;7393;51.446;6.800;2023-05-10T02:28:51;12.00;;;9.00;;
14613;SDS011;7393;51.446;6.800;2023-05-10T02:31:19;11.73;;;9.77;;
14613;SDS011;7393;51.446;6.800;2023-05-10T02:33:47;13.00;;;11.37;;
14613;SDS011;7393;51.446;6.800;2023-05-10T02:36:15;16.03;;;11.53;;
14613;SDS011;7393;51.446;6.800;2023-05-10T02:38:44;15.23;;;11.47;;
14613;SDS011;7393;51.446;6.800;2023-05-10T02:41:13;16.60;;;12.70;;
14613;SDS011;7393;51.446;6.800;2023-05-10T02:43:40;16.03;;;12.00;;
14613;SDS011;7393;51.446;6.800;2023-05-10T02:46:09;16.37;;;12.57;;
14613;SDS011;7393;51.446;6.800;2023-05-10T02:48:35;17.97;;;13.23;;
14613;SDS011;7393;51.446;6.800;2023-05-10T02:51:04;15.70;;;13.13;;
14613;SDS011;7393;51.446;6.800;2023-05-10T02:53:33;14.87;;;12.30;;
14613;SDS011;7393;51.446;6.800;2023-05-10T02:56:05;14.33;;;12.20;;
14613;SDS011;7393;51.446;6.800;2023-05-10T02:58:38;15.83;;;11.63;;
14613;SDS011;7393;51.446;6.800;2023-05-10T03:01:05;19.00;;;12.63;;
14613;SDS011;7393;51.446;6.800;2023-05-10T03:03:32;20.30;;;13.37;;
14613;SDS011;7393;51.446;6.800;2023-05-10T03:05:59;17.90;;;13.50;;
14613;SDS011;7393;51.446;6.800;2023-05-10T03:08:26;16.20;;;11.80;;
14613;SDS011;7393;51.446;6.800;2023-05-10T03:10:55;17.70;;;12.87;;
14613;SDS011;7393;51.446;6.800;2023-05-10T03:13:36;15.57;;;11.83;;
14613;SDS011;7393;51.446;6.800;2023-05-10T03:16:12;15.97;;;12.00;;
14613;SDS011;7393;51.446;6.800;2023-05-10T03:18:44;18.27;;;12.83;;
14613;SDS011;7393;51.446;6.800;2023-05-10T03:21:14;18.40;;;11.97;;
14613;SDS011;7393;51.446;6.800;2023-05-10T03:23:46;16.87;;;11.63;;
14613;SDS011;7393;51.446;6.800;2023-05-10T03:26:17;20.93;;;13.23;;
14613;SDS011;7393;51.446;6.800;2023-05-10T03:28:51;19.40;;;12.87;;
14613;SDS011;7393;51.446;6.800;2023-05-10T03:31:19;19.90;;;12.27;;
14613;SDS011;7393;51.446;6.800;2023-05-10T03:33:46;17.70;;;12.53;;
14613;SDS011;7393;51.446;6.800;2023-05-10T03:36:14;21.27;;;13.23;;
14613;SDS011;7393;51.446;6.800;2023-05-10T03:38:41;25.07;;;14.83;;
14613;SDS011;7393;51.446;6.800;2023-05-10T03:41:07;23.93;;;14.63;;
14613;SDS011;7393;51.446;6.800;2023-05-10T03:43:34;26.30;;;15.77;;
14613;SDS011;7393;51.446;6.800;2023-05-10T03:46:03;26.33;;;15.13;;
14613;SDS011;7393;51.446;6.800;2023-05-10T03:48:30;28.03;;;15.33;;
14613;SDS011;7393;51.446;6.800;2023-05-10T03:50:57;26.27;;;15.60;;
14613;SDS011;7393;51.446;6.800;2023-05-10T03:53:24;23.57;;;15.17;;
14613;SDS011;7393;51.446;6.800;2023-05-10T03:55:51;26.67;;;16.20;;
14613;SDS011;7393;51.446;6.800;2023-05-10T03:58:18;27.10;;;16.67;;
14613;SDS011;7393;51.446;6.800;2023-05-10T04:00:45;27.90;;;16.90;;
14613;SDS011;7393;51.446;6.800;2023-05-10T04:03:13;31.60;;;17.10;;
14613;SDS011;7393;51.446;6.800;2023-05-10T04:05:40;27.43;;;16.20;;
14613;SDS011;7393;51.446;6.800;2023-05-10T04:08:07;27.83;;;16.90;;
14613;SDS011;7393;51.446;6.800;2023-05-10T04:10:34;30.53;;;17.57;;
14613;SDS011;7393;51.446;6.800;2023-05-10T04:13:01;27.67;;;16.83;;
14613;SDS011;7393;51.446;6.800;2023-05-10T04:15:28;24.97;;;16.73;;
14613;SDS011;7393;51.446;6.800;2023-05-10T04:17:54;31.33;;;17.87;;
14613;SDS011;7393;51.446;6.800;2023-05-10T04:20:23;26.40;;;17.73;;
14613;SDS011;7393;51.446;6.800;2023-05-10T04:22:50;25.00;;;16.70;;
14613;SDS011;7393;51.446;6.800;2023-05-10T04:25:16;30.33;;;18.23;;
14613;SDS011;7393;51.446;6.800;2023-05-10T04:27:43;28.83;;;18.73;;
14613;SDS011;7393;51.446;6.800;2023-05-10T04:30:10;29.50;;;18.70;;
14613;SDS011;7393;51.446;6.800;2023-05-10T04:32:37;28.17;;;17.97;;
14613;SDS011;7393;51.446;6.800;2023-05-10T04:35:04;30.23;;;20.13;;
14613;SDS011;7393;51.446;6.800;2023-05-10T04:37:33;29.73;;;19.60;;
14613;SDS011;7393;51.446;6.800;2023-05-10T04:40:00;31.20;;;20.37;;
14613;SDS011;7393;51.446;6.800;2023-05-10T04:42:28;32.30;;;20.10;;
14613;SDS011;7393;51.446;6.800;2023-05-10T04:44:54;32.00;;;20.87;;
14613;SDS011;7393;51.446;6.800;2023-05-10T04:47:21;30.57;;;20.13;;
14613;SDS011;7393;51.446;6.800;2023-05-10T04:49:48;31.40;;;21.17;;
14613;SDS011;7393;51.446;6.800;2023-05-10T04:52:15;30.10;;;19.93;;
14613;SDS011;7393;51.446;6.800;2023-05-10T04:54:44;29.97;;;19.93;;
14613;SDS011;7393;51.446;6.800;2023-05-10T04:57:11;28.13;;;19.77;;
14613;SDS011;7393;51.446;6.800;2023-05-10T04:59:37;27.97;;;19.60;;
14613;SDS011;7393;51.446;6.800;2023-05-10T05:02:04;31.03;;;19.73;;
14613;SDS011;7393;51.446;6.800;2023-05-10T05:04:31;28.97;;;19.87;;
14613;SDS011;7393;51.446;6.800;2023-05-10T05:06:58;27.47;;;19.70;;
14613;SDS011;7393;51.446;6.800;2023-05-10T05:09:25;32.13;;;20.57;;
14613;SDS011;7393;51.446;6.800;2023-05-10T05:11:53;28.60;;;20.93;;
14613;SDS011;7393;51.446;6.800;2023-05-10T05:14:19;29.37;;;20.00;;
14613;SDS011;7393;51.446;6.800;2023-05-10T05:16:53;30.03;;;20.17;;
14613;SDS011;7393;51.446;6.800;2023-05-10T05:19:20;34.07;;;21.07;;
14613;SDS011;7393;51.446;6.800;2023-05-10T05:21:55;27.43;;;20.23;;
14613;SDS011;7393;51.446;6.800;2023-05-10T05:24:22;28.27;;;20.43;;
14613;SDS011;7393;51.446;6.800;2023-05-10T05:26:48;28.27;;;20.27;;
14613;SDS011;7393;51.446;6.800;2023-05-10T05:29:16;29.10;;;20.47;;
14613;SDS011;7393;51.446;6.800;2023-05-10T05:31:43;30.93;;;19.50;;
14613;SDS011;7393;51.446;6.800;2023-05-10T05:34:10;30.43;;;20.17;;
14613;SDS011;7393;51.446;6.800;2023-05-10T05:36:37;30.27;;;20.03;;
14613;SDS011;7393;51.446;6.800;2023-05-10T05:39:04;28.57;;;19.87;;
14613;SDS011;7393;51.446;6.800;2023-05-10T05:41:31;30.23;;;20.40;;
14613;SDS011;7393;51.446;6.800;2023-05-10T05:43:57;29.87;;;20.53;;
14613;SDS011;7393;51.446;6.800;2023-05-10T05:46:26;30.27;;;20.10;;
14613;SDS011;7393;51.446;6.800;2023-05-10T05:48:52;30.40;;;20.63;;
14613;SDS011;7393;51.446;6.800;2023-05-10T05:51:19;29.13;;;21.13;;
14613;SDS011;7393;51.446;6.800;2023-05-10T05:53:46;30.27;;;21.43;;
14613;SDS011;7393;51.446;6.800;2023-05-10T05:56:13;31.57;;;21.70;;
14613;SDS011;7393;51.446;6.800;2023-05-10T05:58:39;31.17;;;20.63;;
14613;SDS011;7393;51.446;6.800;2023-05-10T06:01:06;33.13;;;22.10;;
14613;SDS011;7393;51.446;6.800;2023-05-10T06:03:38;32.87;;;22.53;;
14613;SDS011;7393;51.446;6.800;2023-05-10T06:06:05;34.27;;;22.57;;
14613;SDS011;7393;51.446;6.800;2023-05-10T06:08:32;39.77;;;23.90;;
14613;SDS011;7393;51.446;6.800;2023-05-10T06:10:58;37.03;;;23.30;;
14613;SDS011;7393;51.446;6.800;2023-05-10T06:13:25;35.30;;;23.20;;
14613;SDS011;7393;51.446;6.800;2023-05-10T06:15:56;38.70;;;24.30;;
14613;SDS011;7393;51.446;6.800;2023-05-10T06:18:23;36.27;;;23.17;;
14613;SDS011;7393;51.446;6.800;2023-05-10T06:20:52;37.53;;;24.27;;
14613;SDS011;7393;51.446;6.800;2023-05-10T06:23:18;39.43;;;24.00;;
14613;SDS011;7393;51.446;6.800;2023-05-10T06:25:45;39.13;;;24.50;;
14613;SDS011;7393;51.446;6.800;2023-05-10T06:28:12;39.17;;;24.77;;
14613;SDS011;7393;51.446;6.800;2023-05-10T06:30:39;39.20;;;24.00;;
14613;SDS011;7393;51.446;6.800;2023-05-10T06:33:05;39.87;;;25.67;;
14613;SDS011;7393;51.446;6.800;2023-05-10T06:35:32;38.10;;;24.03;;
14613;SDS011;7393;51.446;6.800;2023-05-10T06:38:00;42.97;;;24.80;;
14613;SDS011;7393;51.446;6.800;2023-05-10T06:40:27;42.77;;;26.37;;
14613;SDS011;7393;51.446;6.800;2023-05-10T06:42:54;40.77;;;25.67;;
14613;SDS011;7393;51.446;6.800;2023-05-10T06:45:21;40.50;;;25.20;;
14613;SDS011;7393;51.446;6.800;2023-05-10T06:47:47;44.93;;;25.90;;
14613;SDS011;7393;51.446;6.800;2023-05-10T06:50:14;41.40;;;25.73;;
14613;SDS011;7393;51.446;6.800;2023-05-10T06:52:41;41.47;;;23.37;;
14613;SDS011;7393;51.446;6.800;2023-05-10T06:55:09;38.53;;;23.17;;
14613;SDS011;7393;51.446;6.800;2023-05-10T06:57:36;41.00;;;24.77;;
14613;SDS011;7393;51.446;6.800;2023-05-10T07:00:04;41.20;;;23.83;;
14613;SDS011;7393;51.446;6.800;2023-05-10T07:02:31;47.17;;;24.60;;
14613;SDS011;7393;51.446;6.800;2023-05-10T07:04:58;42.17;;;25.67;;
14613;SDS011;7393;51.446;6.800;2023-05-10T07:07:25;41.47;;;25.03;;
14613;SDS011;7393;51.446;6.800;2023-05-10T07:09:52;44.83;;;25.40;;
14613;SDS011;7393;51.446;6.800;2023-05-10T07:12:20;43.63;;;24.40;;
14613;SDS011;7393;51.446;6.800;2023-05-10T07:14:47;43.73;;;25.83;;
14613;SDS011;7393;51.446;6.800;2023-05-10T07:17:13;40.53;;;23.97;;
14613;SDS011;7393;51.446;6.800;2023-05-10T07:19:40;41.10;;;24.60;;
14613;SDS011;7393;51.446;6.800;2023-05-10T07:22:07;41.20;;;24.50;;
14613;SDS011;7393;51.446;6.800;2023-05-10T07:24:35;39.07;;;24.10;;
14613;SDS011;7393;51.446;6.800;2023-05-10T07:27:01;39.80;;;24.77;;
14613;SDS011;7393;51.446;6.800;2023-05-10T07:29:30;40.07;;;24.10;;
14613;SDS011;7393;51.446;6.800;2023-05-10T07:31:57;37.83;;;22.40;;
14613;SDS011;7393;51.446;6.800;2023-05-10T07:34:24;36.47;;;21.50;;
14613;SDS011;7393;51.446;6.800;2023-05-10T07:36:51;35.63;;;20.60;;
14613;SDS011;7393;51.446;6.800;2023-05-10T07:39:18;38.97;;;22.37;;
14613;SDS011;7393;51.446;6.800;2023-05-10T07:41:45;38.17;;;21.03;;
14613;SDS011;7393;51.446;6.800;2023-05-10T07:44:12;36.73;;;21.10;;
14613;SDS011;7393;51.446;6.800;2023-05-10T07:46:40;36.33;;;22.07;;
14613;SDS011;7393;51.446;6.800;2023-05-10T07:49:07;35.87;;;21.40;;
14613;SDS011;7393;51.446;6.800;2023-05-10T07:51:34;36.03;;;21.93;;
14613;SDS011;7393;51.446;6.800;2023-05-10T07:54:00;34.63;;;20.70;;
14613;SDS011;7393;51.446;6.800;2023-05-10T07:56:28;33.83;;;19.27;;
14613;SDS011;7393;51.446;6.800;2023-05-10T07:58:57;29.90;;;19.30;;
14613;SDS011;7393;51.446;6.800;2023-05-10T08:01:24;30.67;;;17.90;;
14613;SDS011;7393;51.446;6.800;2023-05-10T08:03:53;28.63;;;17.07;;
14613;SDS011;7393;51.446;6.800;2023-05-10T08:06:20;30.17;;;18.97;;
14613;SDS011;7393;51.446;6.800;2023-05-10T08:08:47;33.40;;;19.83;;
14613;SDS011;7393;51.446;6.800;2023-05-10T08:11:15;35.27;;;20.50;;
14613;SDS011;7393;51.446;6.800;2023-05-10T08:13:42;31.47;;;19.33;;
14613;SDS011;7393;51.446;6.800;2023-05-10T08:16:10;34.83;;;21.13;;
14613;SDS011;7393;51.446;6.800;2023-05-10T08:18:37;37.07;;;21.00;;
14613;SDS011;7393;51.446;6.800;2023-05-10T08:21:05;36.67;;;21.33;;
14613;SDS011;7393;51.446;6.800;2023-05-10T08:23:32;40.90;;;21.83;;
14613;SDS011;7393;51.446;6.800;2023-05-10T08:25:59;40.50;;;22.70;;
14613;SDS011;7393;51.446;6.800;2023-05-10T08:28:26;43.13;;;23.13;;
14613;SDS011;7393;51.446;6.800;2023-05-10T08:30:53;38.20;;;22.17;;
14613;SDS011;7393;51.446;6.800;2023-05-10T08:33:20;37.03;;;20.90;;
14613;SDS011;7393;51.446;6.800;2023-05-10T08:35:47;35.97;;;20.33;;
14613;SDS011;7393;51.446;6.800;2023-05-10T08:38:15;35.07;;;20.20;;
14613;SDS011;7393;51.446;6.800;2023-05-10T08:40:42;34.30;;;20.37;;
14613;SDS011;7393;51.446;6.800;2023-05-10T08:43:11;29.83;;;17.77;;
14613;SDS011;7393;51.446;6.800;2023-05-10T08:45:40;30.70;;;17.90;;
14613;SDS011;7393;51.446;6.800;2023-05-10T08:48:08;32.20;;;18.70;;
14613;SDS011;7393;51.446;6.800;2023-05-10T08:50:36;27.93;;;18.10;;
14613;SDS011;7393;51.446;6.800;2023-05-10T08:53:04;30.33;;;19.20;;
14613;SDS011;7393;51.446;6.800;2023-05-10T08:55:34;31.57;;;19.00;;
14613;SDS011;7393;51.446;6.800;2023-05-10T08:58:03;27.73;;;18.27;;
14613;SDS011;7393;51.446;6.800;2023-05-10T09:00:30;31.80;;;19.60;;
14613;SDS011;7393;51.446;6.800;2023-05-10T09:02:58;35.00;;;18.90;;
14613;SDS011;7393;51.446;6.800;2023-05-10T09:05:25;30.07;;;18.67;;
14613;SDS011;7393;51.446;6.800;2023-05-10T09:07:52;31.60;;;19.80;;
14613;SDS011;7393;51.446;6.800;2023-05-10T09:10:19;33.47;;;18.70;;
14613;SDS011;7393;51.446;6.800;2023-05-10T09:12:48;33.00;;;19.20;;
14613;SDS011;7393;51.446;6.800;2023-05-10T09:15:15;28.50;;;18.13;;
14613;SDS011;7393;51.446;6.800;2023-05-10T09:17:44;26.80;;;17.60;;
14613;SDS011;7393;51.446;6.800;2023-05-10T09:20:11;25.70;;;17.27;;
14613;SDS011;7393;51.446;6.800;2023-05-10T09:22:38;23.27;;;16.00;;
14613;SDS011;7393;51.446;6.800;2023-05-10T09:25:05;23.97;;;15.13;;
14613;SDS011;7393;51.446;6.800;2023-05-10T09:27:33;22.13;;;14.63;;
14613;SDS011;7393;51.446;6.800;2023-05-10T09:30:01;21.80;;;14.20;;
14613;SDS011;7393;51.446;6.800;2023-05-10T09:32:38;20.13;;;14.53;;
14613;SDS011;7393;51.446;6.800;2023-05-10T09:35:06;20.43;;;14.10;;
14613;SDS011;7393;51.446;6.800;2023-05-10T09:37:36;20.60;;;14.93;;
14613;SDS011;7393;51.446;6.800;2023-05-10T09:40:06;18.97;;;13.43;;
14613;SDS011;7393;51.446;6.800;2023-05-10T09:42:34;19.33;;;14.57;;
14613;SDS011;7393;51.446;6.800;2023-05-10T09:45:03;18.67;;;13.37;;
14613;SDS011;7393;51.446;6.800;2023-05-10T09:47:31;20.67;;;14.47;;
14613;SDS011;7393;51.446;6.800;2023-05-10T09:49:59;19.83;;;13.27;;
14613;SDS011;7393;51.446;6.800;2023-05-10T09:52:29;20.23;;;13.67;;
14613;SDS011;7393;51.446;6.800;2023-05-10T09:54:57;21.70;;;13.63;;
14613;SDS011;7393;51.446;6.800;2023-05-10T09:57:24;21.83;;;14.47;;
14613;SDS011;7393;51.446;6.800;2023-05-10T09:59:51;20.33;;;14.93;;
14613;SDS011;7393;51.446;6.800;2023-05-10T10:02:21;24.33;;;14.80;;
14613;SDS011;7393;51.446;6.800;2023-05-10T10:04:54;22.43;;;15.50;;
14613;SDS011;7393;51.446;6.800;2023-05-10T10:07:22;24.10;;;16.03;;
14613;SDS011;7393;51.446;6.800;2023-05-10T10:09:50;18.40;;;14.03;;
14613;SDS011;7393;51.446;6.800;2023-05-10T10:12:17;20.33;;;14.93;;
14613;SDS011;7393;51.446;6.800;2023-05-10T10:14:45;20.37;;;14.70;;
14613;SDS011;7393;51.446;6.800;2023-05-10T10:17:13;20.00;;;13.37;;
14613;SDS011;7393;51.446;6.800;2023-05-10T10:19:41;20.07;;;14.03;;
14613;SDS011;7393;51.446;6.800;2023-05-10T10:22:08;18.90;;;14.33;;
14613;SDS011;7393;51.446;6.800;2023-05-10T10:24:37;17.70;;;13.33;;
14613;SDS011;7393;51.446;6.800;2023-05-10T10:27:08;21.70;;;13.77;;
14613;SDS011;7393;51.446;6.800;2023-05-10T10:29:45;20.67;;;14.03;;
14613;SDS011;7393;51.446;6.800;2023-05-10T10:32:20;22.47;;;14.10;;
14613;SDS011;7393;51.446;6.800;2023-05-10T10:34:53;19.67;;;13.53;;
14613;SDS011;7393;51.446;6.800;2023-05-10T10:37:21;20.40;;;13.73;;
14613;SDS011;7393;51.446;6.800;2023-05-10T10:39:48;18.60;;;13.80;;
14613;SDS011;7393;51.446;6.800;2023-05-10T10:42:15;19.73;;;14.33;;
14613;SDS011;7393;51.446;6.800;2023-05-10T10:45:12;19.13;;;14.70;;
14613;SDS011;7393;51.446;6.800;2023-05-10T10:47:39;22.70;;;14.70;;
14613;SDS011;7393;51.446;6.800;2023-05-10T10:50:09;19.97;;;13.83;;
14613;SDS011;7393;51.446;6.800;2023-05-10T10:52:38;22.90;;;14.80;;
14613;SDS011;7393;51.446;6.800;2023-05-10T10:55:06;18.87;;;13.37;;
14613;SDS011;7393;51.446;6.800;2023-05-10T10:57:42;20.00;;;14.87;;
14613;SDS011;7393;51.446;6.800;2023-05-10T11:00:21;19.67;;;14.63;;
14613;SDS011;7393;51.446;6.800;2023-05-10T11:02:50;21.73;;;15.97;;
14613;SDS011;7393;51.446;6.800;2023-05-10T11:05:33;22.43;;;15.83;;
14613;SDS011;7393;51.446;6.800;2023-05-10T11:08:08;26.00;;;17.37;;
14613;SDS011;7393;51.446;6.800;2023-05-10T11:10:49;23.00;;;16.63;;
14613;SDS011;7393;51.446;6.800;2023-05-10T11:13:30;24.37;;;16.20;;
14613;SDS011;7393;51.446;6.800;2023-05-10T11:15:57;22.10;;;15.50;;
14613;SDS011;7393;51.446;6.800;2023-05-10T11:18:25;22.17;;;15.67;;
14613;SDS011;7393;51.446;6.800;2023-05-10T11:20:56;19.07;;;15.13;;
14613;SDS011;7393;51.446;6.800;2023-05-10T11:23:29;20.73;;;15.20;;
14613;SDS011;7393;51.446;6.800;2023-05-10T11:25:56;20.10;;;14.30;;
14613;SDS011;7393;51.446;6.800;2023-05-10T11:28:24;16.87;;;13.77;;
14613;SDS011;7393;51.446;6.800;2023-05-10T11:30:52;19.37;;;13.87;;
14613;SDS011;7393;51.446;6.800;2023-05-10T11:33:19;16.63;;;12.80;;
14613;SDS011;7393;51.446;6.800;2023-05-10T11:35:46;16.83;;;11.63;;
14613;SDS011;7393;51.446;6.800;2023-05-10T11:38:14;16.40;;;12.07;;
14613;SDS011;7393;51.446;6.800;2023-05-10T11:40:41;16.13;;;11.20;;
14613;SDS011;7393;51.446;6.800;2023-05-10T11:43:08;13.73;;;12.00;;
14613;SDS011;7393;51.446;6.800;2023-05-10T11:45:41;15.57;;;11.77;;
14613;SDS011;7393;51.446;6.800;2023-05-10T11:48:08;13.67;;;10.37;;
14613;SDS011;7393;51.446;6.800;2023-05-10T11:50:35;13.53;;;10.10;;
14613;SDS011;7393;51.446;6.800;2023-05-10T11:53:02;13.50;;;10.77;;
14613;SDS011;7393;51.446;6.800;2023-05-10T11:55:30;12.23;;;9.13;;
14613;SDS011;7393;51.446;6.800;2023-05-10T11:58:00;9.33;;;7.80;;
14613;SDS011;7393;51.446;6.800;2023-05-10T12:00:28;10.07;;;7.73;;
14613;SDS011;7393;51.446;6.800;2023-05-10T12:02:56;10.23;;;6.83;;
14613;SDS011;7393;51.446;6.800;2023-05-10T12:05:23;11.07;;;8.13;;
14613;SDS011;7393;51.446;6.800;2023-05-10T12:07:51;9.70;;;6.93;;
14613;SDS011;7393;51.446;6.800;2023-05-10T12:10:17;9.93;;;7.13;;
14613;SDS011;7393;51.446;6.800;2023-05-10T12:12:53;9.73;;;7.27;;
14613;SDS011;7393;51.446;6.800;2023-05-10T12:15:20;9.60;;;6.87;;
14613;SDS011;7393;51.446;6.800;2023-05-10T12:17:48;8.00;;;6.27;;
14613;SDS011;7393;51.446;6.800;2023-05-10T12:20:16;7.40;;;6.27;;
14613;SDS011;7393;51.446;6.800;2023-05-10T12:22:44;8.80;;;6.70;;
14613;SDS011;7393;51.446;6.800;2023-05-10T12:25:12;8.77;;;5.90;;
14613;SDS011;7393;51.446;6.800;2023-05-10T12:27:39;8.60;;;6.50;;
14613;SDS011;7393;51.446;6.800;2023-05-10T12:30:08;8.47;;;6.07;;
14613;SDS011;7393;51.446;6.800;2023-05-10T12:32:38;10.00;;;6.17;;
14613;SDS011;7393;51.446;6.800;2023-05-10T12:35:06;7.67;;;6.20;;
14613;SDS011;7393;51.446;6.800;2023-05-10T12:37:33;8.50;;;6.20;;
14613;SDS011;7393;51.446;6.800;2023-05-10T12:40:04;9.17;;;6.47;;
14613;SDS011;7393;51.446;6.800;2023-05-10T12:42:33;8.43;;;6.10;;
14613;SDS011;7393;51.446;6.800;2023-05-10T12:45:00;7.30;;;6.30;;
14613;SDS011;7393;51.446;6.800;2023-05-10T12:47:28;8.20;;;6.37;;
14613;SDS011;7393;51.446;6.800;2023-05-10T12:49:55;5.90;;;4.53;;
14613;SDS011;7393;51.446;6.800;2023-05-10T12:52:22;6.50;;;5.60;;
14613;SDS011;7393;51.446;6.800;2023-05-10T12:54:49;7.97;;;5.90;;
14613;SDS011;7393;51.446;6.800;2023-05-10T12:57:16;8.77;;;6.07;;
14613;SDS011;7393;51.446;6.800;2023-05-10T12:59:43;7.07;;;5.63;;
14613;SDS011;7393;51.446;6.800;2023-05-10T13:02:09;10.03;;;5.60;;
14613;SDS011;7393;51.446;6.800;2023-05-10T13:04:37;10.97;;;6.03;;
14613;SDS011;7393;51.446;6.800;2023-05-10T13:07:04;5.97;;;5.33;;
14613;SDS011;7393;51.446;6.800;2023-05-10T13:09:31;6.97;;;4.87;;
14613;SDS011;7393;51.446;6.800;2023-05-10T13:11:58;6.03;;;4.97;;
14613;SDS011;7393;51.446;6.800;2023-05-10T13:14:25;7.43;;;5.70;;
14613;SDS011;7393;51.446;6.800;2023-05-10T13:16:52;6.97;;;5.43;;
14613;SDS011;7393;51.446;6.800;2023-05-10T13:19:19;8.90;;;6.93;;
14613;SDS011;7393;51.446;6.800;2023-05-10T13:21:47;9.73;;;6.10;;
14613;SDS011;7393;51.446;6.800;2023-05-10T13:24:14;8.10;;;5.33;;
14613;SDS011;7393;51.446;6.800;2023-05-10T13:26:42;7.90;;;5.33;;
14613;SDS011;7393;51.446;6.800;2023-05-10T13:29:09;6.03;;;5.30;;
14613;SDS011;7393;51.446;6.800;2023-05-10T13:31:35;7.07;;;5.47;;
14613;SDS011;7393;51.446;6.800;2023-05-10T13:34:03;6.87;;;5.33;;
14613;SDS011;7393;51.446;6.800;2023-05-10T13:36:29;8.30;;;5.00;;
14613;SDS011;7393;51.446;6.800;2023-05-10T13:38:58;8.07;;;5.13;;
14613;SDS011;7393;51.446;6.800;2023-05-10T13:41:26;7.50;;;5.30;;
14613;SDS011;7393;51.446;6.800;2023-05-10T13:43:53;7.37;;;5.40;;
14613;SDS011;7393;51.446;6.800;2023-05-10T13:46:19;5.60;;;4.60;;
14613;SDS011;7393;51.446;6.800;2023-05-10T13:48:46;6.53;;;4.60;;
14613;SDS011;7393;51.446;6.800;2023-05-10T13:51:13;6.83;;;5.20;;
14613;SDS011;7393;51.446;6.800;2023-05-10T13:53:40;8.23;;;5.90;;
14613;SDS011;7393;51.446;6.800;2023-05-10T13:56:08;6.73;;;6.03;;
14613;SDS011;7393;51.446;6.800;2023-05-10T13:58:35;6.53;;;5.90;;
14613;SDS011;7393;51.446;6.800;2023-05-10T14:01:02;6.57;;;5.63;;
14613;SDS011;7393;51.446;6.800;2023-05-10T14:03:29;8.70;;;6.40;;
14613;SDS011;7393;51.446;6.800;2023-05-10T14:05:57;9.47;;;6.73;;
14613;SDS011;7393;51.446;6.800;2023-05-10T14:08:24;8.33;;;6.60;;
14613;SDS011;7393;51.446;6.800;2023-05-10T14:10:52;8.33;;;6.50;;
14613;SDS011;7393;51.446;6.800;2023-05-10T14:13:20;8.97;;;6.43;;
14613;SDS011;7393;51.446;6.800;2023-05-10T14:15:46;7.23;;;6.03;;
14613;SDS011;7393;51.446;6.800;2023-05-10T14:18:13;7.60;;;5.70;;
14613;SDS011;7393;51.446;6.800;2023-05-10T14:20:40;6.97;;;6.27;;
14613;SDS011;7393;51.446;6.800;2023-05-10T14:23:07;8.97;;;7.00;;
14613;SDS011;7393;51.446;6.800;2023-05-10T14:25:34;8.60;;;7.50;;
14613;SDS011;7393;51.446;6.800;2023-05-10T14:28:01;9.00;;;7.20;;
14613;SDS011;7393;51.446;6.800;2023-05-10T14:30:29;7.53;;;6.73;;
14613;SDS011;7393;51.446;6.800;2023-05-10T14:32:56;10.07;;;6.40;;
14613;SDS011;7393;51.446;6.800;2023-05-10T14:35:23;11.30;;;6.70;;
14613;SDS011;7393;51.446;6.800;2023-05-10T14:37:50;6.67;;;5.60;;
14613;SDS011;7393;51.446;6.800;2023-05-10T14:40:17;8.63;;;6.90;;
14613;SDS011;7393;51.446;6.800;2023-05-10T14:42:44;9.07;;;6.43;;
14613;SDS011;7393;51.446;6.800;2023-05-10T14:45:11;7.73;;;6.23;;
14613;SDS011;7393;51.446;6.800;2023-05-10T14:47:39;7.97;;;7.17;;